sensor_id;sensor_type;location;lat;lon;timestamp;pressure;altitude;pressure_sealevel;temperature
20058;BMP180;10189;49.546;7.906;2023-04-24T00:00:16;96979.00;;;12.70
20058;BMP180;10189;49.546;7.906;2023-04-24T00:02:44;96983.00;;;12.80
20058;BMP180;10189;49.546;7.906;2023-04-24T00:05:16;96972.00;;;12.80
20058;BMP180;10189;49.546;7.906;2023-04-24T00:07:44;96971.00;;;12.90
20058;BMP180;10189;49.546;7.906;2023-04-24T00:10:11;96967.00;;;12.90
20058;BMP180;10189;49.546;7.906;2023-04-24T00:12:37;96950.00;;;12.80
20058;BMP180;10189;49.546;7.906;2023-04-24T00:15:04;96955.00;;;12.90
20058;BMP180;10189;49.546;7.906;2023-04-24T00:17:30;96957.00;;;12.80
20058;BMP180;10189;49.546;7.906;2023-04-24T00:19:57;96951.00;;;12.80
20058;BMP180;10189;49.546;7.906;2023-04-24T00:22:28;96952.00;;;12.80
20058;BMP180;10189;49.546;7.906;2023-04-24T00:24:55;96957.00;;;12.80
20058;BMP180;10189;49.546;7.906;2023-04-24T00:27:20;96942.00;;;12.80
20058;BMP180;10189;49.546;7.906;2023-04-24T00:29:48;96949.00;;;12.80
20058;BMP180;10189;49.546;7.906;2023-04-24T00:32:14;96951.00;;;13.00
20058;BMP180;10189;49.546;7.906;2023-04-24T00:34:41;96957.00;;;13.00
20058;BMP180;10189;49.546;7.906;2023-04-24T00:37:07;96950.00;;;13.00
20058;BMP180;10189;49.546;7.906;2023-04-24T00:39:33;96947.00;;;12.90
20058;BMP180;10189;49.546;7.906;2023-04-24T00:41:59;96945.00;;;12.90
20058;BMP180;10189;49.546;7.906;2023-04-24T00:44:25;96941.00;;;12.90
20058;BMP180;10189;49.546;7.906;2023-04-24T00:46:52;96937.00;;;13.00
20058;BMP180;10189;49.546;7.906;2023-04-24T00:49:22;96939.00;;;12.90
20058;BMP180;10189;49.546;7.906;2023-04-24T00:51:48;96938.00;;;13.00
20058;BMP180;10189;49.546;7.906;2023-04-24T00:54:15;96931.00;;;13.00
20058;BMP180;10189;49.546;7.906;2023-04-24T00:56:44;96950.00;;;13.10
20058;BMP180;10189;49.546;7.906;2023-04-24T00:59:12;96929.00;;;13.10
20058;BMP180;10189;49.546;7.906;2023-04-24T01:01:39;96932.00;;;13.10
20058;BMP180;10189;49.546;7.906;2023-04-24T01:04:09;96937.00;;;13.00
20058;BMP180;10189;49.546;7.906;2023-04-24T01:06:39;96937.00;;;13.00
20058;BMP180;10189;49.546;7.906;2023-04-24T01:09:06;96931.00;;;13.00
20058;BMP180;10189;49.546;7.906;2023-04-24T01:11:37;96930.00;;;13.00
20058;BMP180;10189;49.546;7.906;2023-04-24T01:14:04;96933.00;;;13.00
20058;BMP180;10189;49.546;7.906;2023-04-24T01:16:30;96927.00;;;13.00
20058;BMP180;10189;49.546;7.906;2023-04-24T01:18:56;96938.00;;;13.00
20058;BMP180;10189;49.546;7.906;2023-04-24T01:21:26;96938.00;;;13.10
20058;BMP180;10189;49.546;7.906;2023-04-24T01:23:54;96941.00;;;13.10
20058;BMP180;10189;49.546;7.906;2023-04-24T01:26:21;96943.00;;;13.10
20058;BMP180;10189;49.546;7.906;2023-04-24T01:28:48;96955.00;;;13.00
20058;BMP180;10189;49.546;7.906;2023-04-24T01:31:15;96949.00;;;13.00
20058;BMP180;10189;49.546;7.906;2023-04-24T01:33:42;96963.00;;;12.90
20058;BMP180;10189;49.546;7.906;2023-04-24T01:36:10;96958.00;;;12.90
20058;BMP180;10189;49.546;7.906;2023-04-24T01:38:37;96969.00;;;12.80
20058;BMP180;10189;49.546;7.906;2023-04-24T01:41:03;96968.00;;;12.80
20058;BMP180;10189;49.546;7.906;2023-04-24T01:43:30;96969.00;;;12.80
20058;BMP180;10189;49.546;7.906;2023-04-24T01:45:57;96972.00;;;12.70
20058;BMP180;10189;49.546;7.906;2023-04-24T01:48:23;96981.00;;;12.70
20058;BMP180;10189;49.546;7.906;2023-04-24T01:50:49;96984.00;;;12.60
20058;BMP180;10189;49.546;7.906;2023-04-24T01:53:15;96989.00;;;12.60
20058;BMP180;10189;49.546;7.906;2023-04-24T01:55:42;96982.00;;;12.60
20058;BMP180;10189;49.546;7.906;2023-04-24T01:58:08;96981.00;;;12.50
20058;BMP180;10189;49.546;7.906;2023-04-24T02:00:34;96986.00;;;12.40
20058;BMP180;10189;49.546;7.906;2023-04-24T02:02:59;97001.00;;;12.30
20058;BMP180;10189;49.546;7.906;2023-04-24T02:05:28;97003.00;;;12.10
20058;BMP180;10189;49.546;7.906;2023-04-24T02:07:55;96999.00;;;12.20
20058;BMP180;10189;49.546;7.906;2023-04-24T02:10:21;97001.00;;;12.10
20058;BMP180;10189;49.546;7.906;2023-04-24T02:12:46;97007.00;;;12.00
20058;BMP180;10189;49.546;7.906;2023-04-24T02:15:12;97008.00;;;12.00
20058;BMP180;10189;49.546;7.906;2023-04-24T02:17:38;97017.00;;;11.80
20058;BMP180;10189;49.546;7.906;2023-04-24T02:20:06;97019.00;;;11.70
20058;BMP180;10189;49.546;7.906;2023-04-24T02:22:32;97016.00;;;11.70
20058;BMP180;10189;49.546;7.906;2023-04-24T02:25:01;97028.00;;;11.60
20058;BMP180;10189;49.546;7.906;2023-04-24T02:27:27;97021.00;;;11.50
20058;BMP180;10189;49.546;7.906;2023-04-24T02:29:53;97024.00;;;11.50
20058;BMP180;10189;49.546;7.906;2023-04-24T02:32:19;97030.00;;;11.50
20058;BMP180;10189;49.546;7.906;2023-04-24T02:34:44;97025.00;;;11.50
20058;BMP180;10189;49.546;7.906;2023-04-24T02:37:11;97029.00;;;11.40
20058;BMP180;10189;49.546;7.906;2023-04-24T02:39:37;97015.00;;;11.40
20058;BMP180;10189;49.546;7.906;2023-04-24T02:42:03;97022.00;;;11.40
20058;BMP180;10189;49.546;7.906;2023-04-24T02:44:30;97031.00;;;11.30
20058;BMP180;10189;49.546;7.906;2023-04-24T02:46:56;97037.00;;;11.30
20058;BMP180;10189;49.546;7.906;2023-04-24T02:49:22;97029.00;;;11.30
20058;BMP180;10189;49.546;7.906;2023-04-24T02:51:48;97018.00;;;11.40
20058;BMP180;10189;49.546;7.906;2023-04-24T02:54:14;97031.00;;;11.30
20058;BMP180;10189;49.546;7.906;2023-04-24T02:56:40;97036.00;;;11.20
20058;BMP180;10189;49.546;7.906;2023-04-24T02:59:07;97041.00;;;11.20
20058;BMP180;10189;49.546;7.906;2023-04-24T03:01:33;97034.00;;;11.10
20058;BMP180;10189;49.546;7.906;2023-04-24T03:03:59;97035.00;;;11.20
20058;BMP180;10189;49.546;7.906;2023-04-24T03:06:25;97038.00;;;11.20
20058;BMP180;10189;49.546;7.906;2023-04-24T03:08:52;97038.00;;;11.10
20058;BMP180;10189;49.546;7.906;2023-04-24T03:11:18;97050.00;;;11.10
20058;BMP180;10189;49.546;7.906;2023-04-24T03:13:45;97045.00;;;11.00
20058;BMP180;10189;49.546;7.906;2023-04-24T03:16:11;97061.00;;;11.10
20058;BMP180;10189;49.546;7.906;2023-04-24T03:18:37;97067.00;;;11.00
20058;BMP180;10189;49.546;7.906;2023-04-24T03:21:04;97074.00;;;11.10
20058;BMP180;10189;49.546;7.906;2023-04-24T03:23:31;97084.00;;;10.90
20058;BMP180;10189;49.546;7.906;2023-04-24T03:25:57;97079.00;;;10.80
20058;BMP180;10189;49.546;7.906;2023-04-24T03:28:25;97077.00;;;10.70
20058;BMP180;10189;49.546;7.906;2023-04-24T03:30:58;97083.00;;;10.60
20058;BMP180;10189;49.546;7.906;2023-04-24T03:33:28;97085.00;;;10.50
20058;BMP180;10189;49.546;7.906;2023-04-24T03:36:01;97078.00;;;10.40
20058;BMP180;10189;49.546;7.906;2023-04-24T03:38:34;97080.00;;;10.40
20058;BMP180;10189;49.546;7.906;2023-04-24T03:41:15;97087.00;;;10.20
20058;BMP180;10189;49.546;7.906;2023-04-24T03:43:48;97088.00;;;10.10
20058;BMP180;10189;49.546;7.906;2023-04-24T03:46:15;97097.00;;;10.10
20058;BMP180;10189;49.546;7.906;2023-04-24T03:48:46;97086.00;;;10.00
20058;BMP180;10189;49.546;7.906;2023-04-24T03:51:14;97097.00;;;10.00
20058;BMP180;10189;49.546;7.906;2023-04-24T03:53:43;97086.00;;;9.90
20058;BMP180;10189;49.546;7.906;2023-04-24T03:56:11;97095.00;;;10.00
20058;BMP180;10189;49.546;7.906;2023-04-24T03:58:37;97089.00;;;10.00
20058;BMP180;10189;49.546;7.906;2023-04-24T04:01:04;97086.00;;;9.90
20058;BMP180;10189;49.546;7.906;2023-04-24T04:03:58;97086.00;;;9.70
20058;BMP180;10189;49.546;7.906;2023-04-24T04:06:26;97092.00;;;9.80
20058;BMP180;10189;49.546;7.906;2023-04-24T04:08:54;97092.00;;;9.80
20058;BMP180;10189;49.546;7.906;2023-04-24T04:11:20;97097.00;;;9.70
20058;BMP180;10189;49.546;7.906;2023-04-24T04:13:46;97096.00;;;9.80
20058;BMP180;10189;49.546;7.906;2023-04-24T04:16:15;97102.00;;;9.90
20058;BMP180;10189;49.546;7.906;2023-04-24T04:18:46;97098.00;;;9.90
20058;BMP180;10189;49.546;7.906;2023-04-24T04:21:12;97107.00;;;9.90
20058;BMP180;10189;49.546;7.906;2023-04-24T04:23:38;97091.00;;;9.90
20058;BMP180;10189;49.546;7.906;2023-04-24T04:26:28;97115.00;;;10.00
20058;BMP180;10189;49.546;7.906;2023-04-24T04:29:04;97110.00;;;10.00
20058;BMP180;10189;49.546;7.906;2023-04-24T04:31:34;97121.00;;;10.10
20058;BMP180;10189;49.546;7.906;2023-04-24T04:34:05;97121.00;;;10.10
20058;BMP180;10189;49.546;7.906;2023-04-24T04:36:33;97126.00;;;10.10
20058;BMP180;10189;49.546;7.906;2023-04-24T04:39:08;97121.00;;;10.20
20058;BMP180;10189;49.546;7.906;2023-04-24T04:42:00;97133.00;;;10.20
20058;BMP180;10189;49.546;7.906;2023-04-24T04:44:32;97140.00;;;10.20
20058;BMP180;10189;49.546;7.906;2023-04-24T04:47:00;97130.00;;;10.20
20058;BMP180;10189;49.546;7.906;2023-04-24T04:49:29;97136.00;;;10.20
20058;BMP180;10189;49.546;7.906;2023-04-24T04:51:55;97140.00;;;10.20
20058;BMP180;10189;49.546;7.906;2023-04-24T04:54:24;97140.00;;;10.20
20058;BMP180;10189;49.546;7.906;2023-04-24T04:56:50;97141.00;;;10.20
20058;BMP180;10189;49.546;7.906;2023-04-24T04:59:17;97148.00;;;10.40
20058;BMP180;10189;49.546;7.906;2023-04-24T05:01:43;97147.00;;;10.50
20058;BMP180;10189;49.546;7.906;2023-04-24T05:04:10;97152.00;;;10.60
20058;BMP180;10189;49.546;7.906;2023-04-24T05:06:37;97152.00;;;10.70
20058;BMP180;10189;49.546;7.906;2023-04-24T05:09:04;97158.00;;;10.70
20058;BMP180;10189;49.546;7.906;2023-04-24T05:11:46;97149.00;;;10.70
20058;BMP180;10189;49.546;7.906;2023-04-24T05:14:12;97152.00;;;10.60
20058;BMP180;10189;49.546;7.906;2023-04-24T05:16:40;97145.00;;;10.70
20058;BMP180;10189;49.546;7.906;2023-04-24T05:19:07;97149.00;;;10.70
20058;BMP180;10189;49.546;7.906;2023-04-24T05:21:37;97151.00;;;10.70
20058;BMP180;10189;49.546;7.906;2023-04-24T05:24:05;97149.00;;;10.80
20058;BMP180;10189;49.546;7.906;2023-04-24T05:26:45;97162.00;;;10.60
20058;BMP180;10189;49.546;7.906;2023-04-24T05:29:13;97170.00;;;10.60
20058;BMP180;10189;49.546;7.906;2023-04-24T05:31:39;97174.00;;;10.50
20058;BMP180;10189;49.546;7.906;2023-04-24T05:34:06;97168.00;;;10.80
20058;BMP180;10189;49.546;7.906;2023-04-24T05:36:34;97173.00;;;10.80
20058;BMP180;10189;49.546;7.906;2023-04-24T05:39:00;97174.00;;;11.00
20058;BMP180;10189;49.546;7.906;2023-04-24T05:41:26;97177.00;;;11.00
20058;BMP180;10189;49.546;7.906;2023-04-24T05:43:52;97185.00;;;11.00
20058;BMP180;10189;49.546;7.906;2023-04-24T05:46:18;97172.00;;;11.10
20058;BMP180;10189;49.546;7.906;2023-04-24T05:48:44;97183.00;;;11.10
20058;BMP180;10189;49.546;7.906;2023-04-24T05:51:10;97169.00;;;11.30
20058;BMP180;10189;49.546;7.906;2023-04-24T05:53:36;97174.00;;;11.20
20058;BMP180;10189;49.546;7.906;2023-04-24T05:56:02;97182.00;;;11.00
20058;BMP180;10189;49.546;7.906;2023-04-24T05:58:28;97183.00;;;10.90
20058;BMP180;10189;49.546;7.906;2023-04-24T06:00:54;97201.00;;;10.90
20058;BMP180;10189;49.546;7.906;2023-04-24T06:03:20;97189.00;;;10.90
20058;BMP180;10189;49.546;7.906;2023-04-24T06:05:50;97189.00;;;10.90
20058;BMP180;10189;49.546;7.906;2023-04-24T06:08:17;97207.00;;;10.80
20058;BMP180;10189;49.546;7.906;2023-04-24T06:10:44;97210.00;;;10.90
20058;BMP180;10189;49.546;7.906;2023-04-24T06:13:11;97203.00;;;11.10
20058;BMP180;10189;49.546;7.906;2023-04-24T06:15:41;97211.00;;;11.20
20058;BMP180;10189;49.546;7.906;2023-04-24T06:18:11;97214.00;;;11.60
20058;BMP180;10189;49.546;7.906;2023-04-24T06:20:39;97213.00;;;11.80
20058;BMP180;10189;49.546;7.906;2023-04-24T06:23:08;97190.00;;;12.00
20058;BMP180;10189;49.546;7.906;2023-04-24T06:25:34;97206.00;;;12.10
20058;BMP180;10189;49.546;7.906;2023-04-24T06:28:00;97204.00;;;12.20
20058;BMP180;10189;49.546;7.906;2023-04-24T06:30:29;97194.00;;;12.60
20058;BMP180;10189;49.546;7.906;2023-04-24T06:32:55;97199.00;;;13.30
20058;BMP180;10189;49.546;7.906;2023-04-24T06:35:21;97195.00;;;13.50
20058;BMP180;10189;49.546;7.906;2023-04-24T06:37:47;97188.00;;;14.00
20058;BMP180;10189;49.546;7.906;2023-04-24T06:40:12;97201.00;;;13.80
20058;BMP180;10189;49.546;7.906;2023-04-24T06:42:38;97215.00;;;13.50
20058;BMP180;10189;49.546;7.906;2023-04-24T06:45:07;97218.00;;;13.40
20058;BMP180;10189;49.546;7.906;2023-04-24T06:47:33;97224.00;;;12.80
20058;BMP180;10189;49.546;7.906;2023-04-24T06:50:00;97220.00;;;12.60
20058;BMP180;10189;49.546;7.906;2023-04-24T06:52:25;97233.00;;;12.60
20058;BMP180;10189;49.546;7.906;2023-04-24T06:54:51;97239.00;;;12.40
20058;BMP180;10189;49.546;7.906;2023-04-24T06:57:18;97244.00;;;12.40
20058;BMP180;10189;49.546;7.906;2023-04-24T06:59:45;97239.00;;;12.40
20058;BMP180;10189;49.546;7.906;2023-04-24T07:02:11;97239.00;;;12.40
20058;BMP180;10189;49.546;7.906;2023-04-24T07:04:36;97246.00;;;12.50
20058;BMP180;10189;49.546;7.906;2023-04-24T07:07:02;97254.00;;;12.30
20058;BMP180;10189;49.546;7.906;2023-04-24T07:09:28;97254.00;;;12.10
20058;BMP180;10189;49.546;7.906;2023-04-24T07:11:54;97249.00;;;12.00
20058;BMP180;10189;49.546;7.906;2023-04-24T07:14:22;97235.00;;;12.20
20058;BMP180;10189;49.546;7.906;2023-04-24T07:16:48;97248.00;;;12.10
20058;BMP180;10189;49.546;7.906;2023-04-24T07:19:14;97253.00;;;12.30
20058;BMP180;10189;49.546;7.906;2023-04-24T07:21:40;97236.00;;;12.30
20058;BMP180;10189;49.546;7.906;2023-04-24T07:24:06;97238.00;;;12.30
20058;BMP180;10189;49.546;7.906;2023-04-24T07:26:37;97256.00;;;12.10
20058;BMP180;10189;49.546;7.906;2023-04-24T07:29:04;97252.00;;;11.90
20058;BMP180;10189;49.546;7.906;2023-04-24T07:31:30;97268.00;;;11.90
20058;BMP180;10189;49.546;7.906;2023-04-24T07:33:56;97257.00;;;11.80
20058;BMP180;10189;49.546;7.906;2023-04-24T07:36:24;97276.00;;;11.70
20058;BMP180;10189;49.546;7.906;2023-04-24T07:38:51;97273.00;;;11.50
20058;BMP180;10189;49.546;7.906;2023-04-24T07:41:18;97281.00;;;11.40
20058;BMP180;10189;49.546;7.906;2023-04-24T07:43:44;97286.00;;;11.20
20058;BMP180;10189;49.546;7.906;2023-04-24T07:46:10;97291.00;;;11.20
20058;BMP180;10189;49.546;7.906;2023-04-24T07:48:36;97292.00;;;11.30
20058;BMP180;10189;49.546;7.906;2023-04-24T07:51:02;97282.00;;;11.50
20058;BMP180;10189;49.546;7.906;2023-04-24T07:53:28;97275.00;;;11.60
20058;BMP180;10189;49.546;7.906;2023-04-24T07:55:55;97279.00;;;11.80
20058;BMP180;10189;49.546;7.906;2023-04-24T07:58:21;97282.00;;;12.10
20058;BMP180;10189;49.546;7.906;2023-04-24T08:00:47;97272.00;;;12.20
20058;BMP180;10189;49.546;7.906;2023-04-24T08:03:13;97290.00;;;12.40
20058;BMP180;10189;49.546;7.906;2023-04-24T08:05:40;97291.00;;;12.40
20058;BMP180;10189;49.546;7.906;2023-04-24T08:08:07;97289.00;;;12.40
20058;BMP180;10189;49.546;7.906;2023-04-24T08:10:33;97288.00;;;12.30
20058;BMP180;10189;49.546;7.906;2023-04-24T08:12:59;97299.00;;;12.00
20058;BMP180;10189;49.546;7.906;2023-04-24T08:15:27;97307.00;;;12.10
20058;BMP180;10189;49.546;7.906;2023-04-24T08:17:53;97295.00;;;12.20
20058;BMP180;10189;49.546;7.906;2023-04-24T08:20:19;97303.00;;;12.10
20058;BMP180;10189;49.546;7.906;2023-04-24T08:22:45;97272.00;;;12.30
20058;BMP180;10189;49.546;7.906;2023-04-24T08:25:12;97289.00;;;12.60
20058;BMP180;10189;49.546;7.906;2023-04-24T08:27:38;97292.00;;;13.00
20058;BMP180;10189;49.546;7.906;2023-04-24T08:30:06;97302.00;;;13.20
20058;BMP180;10189;49.546;7.906;2023-04-24T08:32:32;97289.00;;;13.10
20058;BMP180;10189;49.546;7.906;2023-04-24T08:34:59;97314.00;;;12.80
20058;BMP180;10189;49.546;7.906;2023-04-24T08:37:27;97308.00;;;12.50
20058;BMP180;10189;49.546;7.906;2023-04-24T08:39:53;97304.00;;;12.50
20058;BMP180;10189;49.546;7.906;2023-04-24T08:42:20;97310.00;;;12.80
20058;BMP180;10189;49.546;7.906;2023-04-24T08:44:49;97297.00;;;12.90
20058;BMP180;10189;49.546;7.906;2023-04-24T08:47:16;97312.00;;;12.80
20058;BMP180;10189;49.546;7.906;2023-04-24T08:49:43;97315.00;;;12.80
20058;BMP180;10189;49.546;7.906;2023-04-24T08:52:09;97306.00;;;12.60
20058;BMP180;10189;49.546;7.906;2023-04-24T08:54:39;97307.00;;;12.70
20058;BMP180;10189;49.546;7.906;2023-04-24T08:57:09;97313.00;;;12.70
20058;BMP180;10189;49.546;7.906;2023-04-24T08:59:38;97314.00;;;12.80
20058;BMP180;10189;49.546;7.906;2023-04-24T09:02:05;97309.00;;;12.90
20058;BMP180;10189;49.546;7.906;2023-04-24T09:04:33;97320.00;;;12.90
20058;BMP180;10189;49.546;7.906;2023-04-24T09:07:00;97335.00;;;12.70
20058;BMP180;10189;49.546;7.906;2023-04-24T09:09:30;97347.00;;;12.70
20058;BMP180;10189;49.546;7.906;2023-04-24T09:11:58;97356.00;;;12.30
20058;BMP180;10189;49.546;7.906;2023-04-24T09:14:24;97367.00;;;11.90
20058;BMP180;10189;49.546;7.906;2023-04-24T09:16:51;97379.00;;;11.50
20058;BMP180;10189;49.546;7.906;2023-04-24T09:19:17;97372.00;;;11.30
20058;BMP180;10189;49.546;7.906;2023-04-24T09:21:46;97381.00;;;11.20
20058;BMP180;10189;49.546;7.906;2023-04-24T09:24:18;97365.00;;;11.30
20058;BMP180;10189;49.546;7.906;2023-04-24T09:26:46;97372.00;;;11.40
20058;BMP180;10189;49.546;7.906;2023-04-24T09:29:17;97377.00;;;11.50
20058;BMP180;10189;49.546;7.906;2023-04-24T09:31:44;97381.00;;;11.70
20058;BMP180;10189;49.546;7.906;2023-04-24T09:34:11;97372.00;;;11.90
20058;BMP180;10189;49.546;7.906;2023-04-24T09:36:42;97376.00;;;11.80
20058;BMP180;10189;49.546;7.906;2023-04-24T09:39:14;97372.00;;;12.20
20058;BMP180;10189;49.546;7.906;2023-04-24T09:41:47;97365.00;;;12.20
20058;BMP180;10189;49.546;7.906;2023-04-24T09:44:16;97360.00;;;12.60
20058;BMP180;10189;49.546;7.906;2023-04-24T09:46:45;97360.00;;;13.00
20058;BMP180;10189;49.546;7.906;2023-04-24T09:49:16;97366.00;;;12.80
20058;BMP180;10189;49.546;7.906;2023-04-24T09:51:43;97373.00;;;12.60
20058;BMP180;10189;49.546;7.906;2023-04-24T09:54:19;97384.00;;;12.30
20058;BMP180;10189;49.546;7.906;2023-04-24T09:56:50;97385.00;;;12.10
20058;BMP180;10189;49.546;7.906;2023-04-24T09:59:18;97382.00;;;12.10
20058;BMP180;10189;49.546;7.906;2023-04-24T10:01:45;97379.00;;;12.20
20058;BMP180;10189;49.546;7.906;2023-04-24T10:04:23;97386.00;;;12.30
20058;BMP180;10189;49.546;7.906;2023-04-24T10:06:52;97385.00;;;12.50
20058;BMP180;10189;49.546;7.906;2023-04-24T10:09:21;97373.00;;;12.90
20058;BMP180;10189;49.546;7.906;2023-04-24T10:11:50;97379.00;;;13.10
20058;BMP180;10189;49.546;7.906;2023-04-24T10:14:22;97383.00;;;13.40
20058;BMP180;10189;49.546;7.906;2023-04-24T10:16:49;97379.00;;;13.60
20058;BMP180;10189;49.546;7.906;2023-04-24T10:19:16;97376.00;;;13.70
20058;BMP180;10189;49.546;7.906;2023-04-24T10:21:45;97379.00;;;13.80
20058;BMP180;10189;49.546;7.906;2023-04-24T10:24:16;97387.00;;;13.90
20058;BMP180;10189;49.546;7.906;2023-04-24T10:26:44;97380.00;;;14.00
20058;BMP180;10189;49.546;7.906;2023-04-24T10:29:13;97384.00;;;13.80
20058;BMP180;10189;49.546;7.906;2023-04-24T10:31:40;97403.00;;;13.70
20058;BMP180;10189;49.546;7.906;2023-04-24T10:34:09;97406.00;;;13.60
20058;BMP180;10189;49.546;7.906;2023-04-24T10:36:40;97410.00;;;13.60
20058;BMP180;10189;49.546;7.906;2023-04-24T10:39:11;97405.00;;;13.40
20058;BMP180;10189;49.546;7.906;2023-04-24T10:41:38;97409.00;;;13.30
20058;BMP180;10189;49.546;7.906;2023-04-24T10:44:09;97416.00;;;13.10
20058;BMP180;10189;49.546;7.906;2023-04-24T10:46:39;97427.00;;;13.10
20058;BMP180;10189;49.546;7.906;2023-04-24T10:49:08;97420.00;;;13.10
20058;BMP180;10189;49.546;7.906;2023-04-24T10:51:54;97431.00;;;13.20
20058;BMP180;10189;49.546;7.906;2023-04-24T10:54:56;97413.00;;;13.90
20058;BMP180;10189;49.546;7.906;2023-04-24T10:57:28;97418.00;;;14.50
20058;BMP180;10189;49.546;7.906;2023-04-24T11:00:18;97427.00;;;14.30
20058;BMP180;10189;49.546;7.906;2023-04-24T11:02:47;97445.00;;;14.10
20058;BMP180;10189;49.546;7.906;2023-04-24T11:05:20;97444.00;;;13.50
20058;BMP180;10189;49.546;7.906;2023-04-24T11:08:15;97431.00;;;12.90
20058;BMP180;10189;49.546;7.906;2023-04-24T11:13:26;97466.00;;;12.60
20058;BMP180;10189;49.546;7.906;2023-04-24T11:16:26;97461.00;;;12.50
20058;BMP180;10189;49.546;7.906;2023-04-24T11:22:04;97468.00;;;12.90
20058;BMP180;10189;49.546;7.906;2023-04-24T11:24:50;97453.00;;;13.50
20058;BMP180;10189;49.546;7.906;2023-04-24T11:27:24;97457.00;;;13.80
20058;BMP180;10189;49.546;7.906;2023-04-24T11:35:14;97448.00;;;14.40
20058;BMP180;10189;49.546;7.906;2023-04-24T11:37:46;97454.00;;;14.10
20058;BMP180;10189;49.546;7.906;2023-04-24T11:40:15;97447.00;;;14.40
20058;BMP180;10189;49.546;7.906;2023-04-24T11:42:46;97455.00;;;14.50
20058;BMP180;10189;49.546;7.906;2023-04-24T11:45:22;97450.00;;;14.30
20058;BMP180;10189;49.546;7.906;2023-04-24T11:47:49;97448.00;;;14.80
20058;BMP180;10189;49.546;7.906;2023-04-24T11:50:17;97453.00;;;15.00
20058;BMP180;10189;49.546;7.906;2023-04-24T11:52:46;97452.00;;;15.30
20058;BMP180;10189;49.546;7.906;2023-04-24T11:57:52;97451.00;;;15.20
20058;BMP180;10189;49.546;7.906;2023-04-24T12:00:29;97436.00;;;15.70
20058;BMP180;10189;49.546;7.906;2023-04-24T12:03:10;97460.00;;;15.70
20058;BMP180;10189;49.546;7.906;2023-04-24T12:05:38;97459.00;;;15.30
20058;BMP180;10189;49.546;7.906;2023-04-24T12:08:04;97467.00;;;15.30
20058;BMP180;10189;49.546;7.906;2023-04-24T12:10:33;97460.00;;;14.90
20058;BMP180;10189;49.546;7.906;2023-04-24T12:13:00;97462.00;;;14.60
20058;BMP180;10189;49.546;7.906;2023-04-24T12:15:27;97464.00;;;14.70
20058;BMP180;10189;49.546;7.906;2023-04-24T12:17:54;97457.00;;;14.80
20058;BMP180;10189;49.546;7.906;2023-04-24T12:20:30;97464.00;;;15.00
20058;BMP180;10189;49.546;7.906;2023-04-24T12:22:58;97477.00;;;14.90
20058;BMP180;10189;49.546;7.906;2023-04-24T12:25:29;97473.00;;;14.50
20058;BMP180;10189;49.546;7.906;2023-04-24T12:28:21;97480.00;;;14.10
20058;BMP180;10189;49.546;7.906;2023-04-24T12:30:48;97466.00;;;14.40
20058;BMP180;10189;49.546;7.906;2023-04-24T12:33:21;97463.00;;;14.90
20058;BMP180;10189;49.546;7.906;2023-04-24T12:35:51;97478.00;;;15.20
20058;BMP180;10189;49.546;7.906;2023-04-24T12:38:23;97464.00;;;15.20
20058;BMP180;10189;49.546;7.906;2023-04-24T12:41:12;97466.00;;;15.20
20058;BMP180;10189;49.546;7.906;2023-04-24T12:43:38;97461.00;;;15.60
20058;BMP180;10189;49.546;7.906;2023-04-24T12:46:15;97461.00;;;15.70
20058;BMP180;10189;49.546;7.906;2023-04-24T12:48:41;97464.00;;;15.80
20058;BMP180;10189;49.546;7.906;2023-04-24T12:51:07;97464.00;;;15.70
20058;BMP180;10189;49.546;7.906;2023-04-24T12:53:33;97469.00;;;14.90
20058;BMP180;10189;49.546;7.906;2023-04-24T12:55:59;97474.00;;;15.20
20058;BMP180;10189;49.546;7.906;2023-04-24T12:58:25;97476.00;;;15.30
20058;BMP180;10189;49.546;7.906;2023-04-24T13:00:51;97461.00;;;15.20
20058;BMP180;10189;49.546;7.906;2023-04-24T13:03:18;97470.00;;;14.80
20058;BMP180;10189;49.546;7.906;2023-04-24T13:05:44;97471.00;;;14.70
20058;BMP180;10189;49.546;7.906;2023-04-24T13:08:10;97478.00;;;14.60
20058;BMP180;10189;49.546;7.906;2023-04-24T13:10:36;97472.00;;;14.70
20058;BMP180;10189;49.546;7.906;2023-04-24T13:13:03;97473.00;;;14.90
20058;BMP180;10189;49.546;7.906;2023-04-24T13:15:29;97483.00;;;15.20
20058;BMP180;10189;49.546;7.906;2023-04-24T13:17:55;97486.00;;;14.80
20058;BMP180;10189;49.546;7.906;2023-04-24T13:20:21;97485.00;;;14.50
20058;BMP180;10189;49.546;7.906;2023-04-24T13:22:46;97489.00;;;14.20
20058;BMP180;10189;49.546;7.906;2023-04-24T13:25:12;97488.00;;;14.10
20058;BMP180;10189;49.546;7.906;2023-04-24T13:27:39;97493.00;;;13.80
20058;BMP180;10189;49.546;7.906;2023-04-24T13:30:06;97484.00;;;13.70
20058;BMP180;10189;49.546;7.906;2023-04-24T13:32:32;97492.00;;;13.80
20058;BMP180;10189;49.546;7.906;2023-04-24T13:34:59;97503.00;;;13.70
20058;BMP180;10189;49.546;7.906;2023-04-24T13:37:25;97485.00;;;14.10
20058;BMP180;10189;49.546;7.906;2023-04-24T13:39:51;97484.00;;;14.70
20058;BMP180;10189;49.546;7.906;2023-04-24T13:42:17;97481.00;;;15.20
20058;BMP180;10189;49.546;7.906;2023-04-24T13:44:43;97463.00;;;14.80
20058;BMP180;10189;49.546;7.906;2023-04-24T13:47:09;97477.00;;;15.10
20058;BMP180;10189;49.546;7.906;2023-04-24T13:49:35;97476.00;;;15.30
20058;BMP180;10189;49.546;7.906;2023-04-24T13:52:02;97465.00;;;15.30
20058;BMP180;10189;49.546;7.906;2023-04-24T13:54:28;97456.00;;;15.20
20058;BMP180;10189;49.546;7.906;2023-04-24T13:56:57;97468.00;;;15.20
20058;BMP180;10189;49.546;7.906;2023-04-24T13:59:23;97464.00;;;15.10
20058;BMP180;10189;49.546;7.906;2023-04-24T14:01:49;97472.00;;;15.30
20058;BMP180;10189;49.546;7.906;2023-04-24T14:04:15;97464.00;;;15.40
20058;BMP180;10189;49.546;7.906;2023-04-24T14:06:41;97471.00;;;14.60
20058;BMP180;10189;49.546;7.906;2023-04-24T14:09:07;97477.00;;;14.50
20058;BMP180;10189;49.546;7.906;2023-04-24T14:11:34;97475.00;;;14.70
20058;BMP180;10189;49.546;7.906;2023-04-24T14:14:00;97469.00;;;14.70
20058;BMP180;10189;49.546;7.906;2023-04-24T14:16:26;97466.00;;;14.50
20058;BMP180;10189;49.546;7.906;2023-04-24T14:18:52;97462.00;;;14.30
20058;BMP180;10189;49.546;7.906;2023-04-24T14:21:18;97466.00;;;14.60
20058;BMP180;10189;49.546;7.906;2023-04-24T14:23:44;97474.00;;;14.70
20058;BMP180;10189;49.546;7.906;2023-04-24T14:26:11;97480.00;;;14.80
20058;BMP180;10189;49.546;7.906;2023-04-24T14:28:37;97483.00;;;14.70